createdAt,value
2017-06-05T00:00:02.053Z,4.18
2017-06-05T00:02:29.676Z,3.88
2017-06-05T00:04:57.294Z,3.74
2017-06-05T00:07:24.911Z,4.50
2017-06-05T00:09:53.260Z,3.98
2017-06-05T00:12:20.854Z,4.52
2017-06-05T00:14:48.469Z,4.44
2017-06-05T00:17:16.008Z,4.26
2017-06-05T00:19:43.564Z,4.98
2017-06-05T00:22:11.929Z,4.50
2017-06-05T00:24:39.526Z,4.86
2017-06-05T00:27:07.100Z,4.36
2017-06-05T00:29:34.639Z,5.22
2017-06-05T00:32:03.042Z,4.52
2017-06-05T00:34:30.621Z,5.54
2017-06-05T00:36:58.193Z,5.04
2017-06-05T00:39:25.819Z,4.26
2017-06-05T00:41:54.157Z,5.20
2017-06-05T00:44:21.718Z,4.68
2017-06-05T00:46:49.360Z,5.30
2017-06-05T00:49:16.914Z,4.60
2017-06-05T00:51:45.296Z,4.38
2017-06-05T00:54:12.939Z,4.44
2017-06-05T00:56:40.535Z,5.62
2017-06-05T00:59:08.075Z,5.00
2017-06-05T01:01:36.483Z,5.58
2017-06-05T01:04:04.097Z,5.36
2017-06-05T01:06:31.701Z,5.50
2017-06-05T01:08:59.317Z,5.32
2017-06-05T01:11:27.652Z,4.84
2017-06-05T01:13:55.193Z,4.76
2017-06-05T01:16:22.776Z,4.70
2017-06-05T01:18:50.333Z,4.80
2017-06-05T01:21:18.680Z,5.00
2017-06-05T01:23:46.284Z,5.50
2017-06-05T01:26:13.913Z,4.36
2017-06-05T01:28:41.474Z,4.50
2017-06-05T01:31:09.808Z,5.58
2017-06-05T01:33:37.415Z,5.14
2017-06-05T01:36:04.973Z,5.20
2017-06-05T01:38:32.555Z,5.42
2017-06-05T01:41:00.933Z,5.12
2017-06-05T01:43:28.475Z,4.64
2017-06-05T01:45:56.041Z,5.14
2017-06-05T01:48:23.666Z,5.30
2017-06-05T01:50:52.074Z,5.16
2017-06-05T01:53:19.628Z,5.82
2017-06-05T01:55:47.262Z,5.54
2017-06-05T01:58:14.811Z,4.24
2017-06-05T02:00:43.161Z,5.92
2017-06-05T02:03:10.741Z,5.00
2017-06-05T02:05:38.337Z,5.08
2017-06-05T02:08:05.911Z,5.80
2017-06-05T02:10:34.267Z,4.62
2017-06-05T02:13:01.869Z,4.62
2017-06-05T02:15:29.420Z,5.32
2017-06-05T02:17:57.051Z,5.90
2017-06-05T02:20:25.390Z,6.02
2017-06-05T02:22:52.989Z,5.46
2017-06-05T02:25:20.572Z,5.58
2017-06-05T02:27:48.166Z,5.50
2017-06-05T02:30:16.557Z,6.30
2017-06-05T02:32:44.162Z,5.88
2017-06-05T02:35:11.763Z,5.52
2017-06-05T02:37:39.367Z,5.54
2017-06-05T02:40:07.693Z,4.86
2017-06-05T02:42:35.253Z,4.82
2017-06-05T02:45:02.807Z,5.34
2017-06-05T02:47:30.399Z,5.02
2017-06-05T02:49:58.712Z,5.80
2017-06-05T02:52:26.280Z,5.30
2017-06-05T02:54:53.879Z,5.56
2017-06-05T02:57:21.455Z,4.90
2017-06-05T02:59:49.761Z,6.02
2017-06-05T03:02:17.354Z,5.34
2017-06-05T03:04:44.947Z,5.32
2017-06-05T03:07:12.562Z,4.82
2017-06-05T03:09:41.058Z,5.52
2017-06-05T03:12:09.414Z,4.44
2017-06-05T03:14:37.008Z,4.88
2017-06-05T03:17:04.584Z,4.64
2017-06-05T03:19:32.182Z,5.32
2017-06-05T03:22:00.503Z,6.08
2017-06-05T03:24:28.117Z,6.02
2017-06-05T03:26:55.714Z,5.40
2017-06-05T03:29:23.282Z,5.66
2017-06-05T03:31:51.660Z,5.52
2017-06-05T03:34:19.215Z,5.88
2017-06-05T03:36:46.763Z,5.40
2017-06-05T03:39:14.355Z,5.42
2017-06-05T03:41:42.752Z,5.36
2017-06-05T03:44:10.388Z,5.06
2017-06-05T03:46:37.973Z,5.88
2017-06-05T03:49:05.532Z,5.38
2017-06-05T03:51:33.881Z,6.34
2017-06-05T03:54:01.446Z,5.94
2017-06-05T03:56:29.032Z,5.38
2017-06-05T03:58:56.620Z,5.54
2017-06-05T04:01:24.985Z,5.50
2017-06-05T04:03:52.605Z,6.06
2017-06-05T04:06:20.184Z,6.04
2017-06-05T04:08:47.772Z,5.18
2017-06-05T04:11:16.121Z,5.98
2017-06-05T04:13:43.670Z,5.30
2017-06-05T04:16:11.226Z,5.68
2017-06-05T04:18:38.829Z,5.84
2017-06-05T04:21:07.214Z,6.12
2017-06-05T04:23:34.852Z,5.60
2017-06-05T04:26:02.392Z,6.84
2017-06-05T04:28:29.957Z,6.58
2017-06-05T04:30:58.327Z,5.46
2017-06-05T04:33:25.905Z,4.90
2017-06-05T04:35:53.517Z,5.60
2017-06-05T04:38:21.079Z,5.70
2017-06-05T04:40:49.464Z,5.58
2017-06-05T04:43:16.999Z,5.92
2017-06-05T04:45:44.602Z,5.90
2017-06-05T04:48:12.225Z,5.56
2017-06-05T04:50:40.618Z,5.78
2017-06-05T04:53:08.217Z,5.54
2017-06-05T04:55:35.819Z,5.08
2017-06-05T04:58:03.412Z,6.98
2017-06-05T05:00:31.841Z,5.68
2017-06-05T05:02:59.474Z,5.34
2017-06-05T05:05:27.046Z,5.10
2017-06-05T05:07:54.641Z,5.64
2017-06-05T05:10:23.019Z,4.66
2017-06-05T05:12:50.635Z,5.76
2017-06-05T05:15:18.209Z,5.10
2017-06-05T05:17:45.802Z,5.24
2017-06-05T05:20:14.187Z,4.92
2017-06-05T05:22:41.799Z,4.80
2017-06-05T05:25:09.429Z,5.10
2017-06-05T05:27:37.033Z,5.52
2017-06-05T05:30:05.415Z,5.20
2017-06-05T05:32:33.060Z,6.84
2017-06-05T05:35:00.665Z,5.30
2017-06-05T05:37:28.211Z,6.22
2017-06-05T05:39:56.534Z,6.26
2017-06-05T05:42:24.182Z,5.90
2017-06-05T05:44:51.830Z,5.70
2017-06-05T05:47:19.400Z,5.60
2017-06-05T05:49:47.697Z,5.44
2017-06-05T05:52:15.339Z,5.80
2017-06-05T05:54:42.903Z,5.66
2017-06-05T05:57:10.529Z,5.24
2017-06-05T05:59:38.080Z,5.12
2017-06-05T06:02:06.446Z,5.30
2017-06-05T06:04:34.017Z,4.60
2017-06-05T06:07:01.560Z,4.88
2017-06-05T06:09:29.106Z,4.40
2017-06-05T06:11:57.556Z,4.68
2017-06-05T06:14:25.083Z,4.78
2017-06-05T06:16:52.669Z,4.36
2017-06-05T06:19:20.244Z,4.34
2017-06-05T06:21:48.593Z,4.76
2017-06-05T06:24:16.142Z,4.22
2017-06-05T06:26:43.713Z,4.00
2017-06-05T06:29:11.720Z,4.30
2017-06-05T06:31:40.219Z,4.56
2017-06-05T06:34:07.758Z,4.02
2017-06-05T06:36:35.327Z,3.88
2017-06-05T06:39:02.868Z,4.48
2017-06-05T06:41:31.238Z,3.60
2017-06-05T06:43:58.816Z,3.98
2017-06-05T06:46:26.370Z,4.34
2017-06-05T06:48:53.910Z,5.54
2017-06-05T06:51:22.249Z,4.22
2017-06-05T06:53:49.829Z,5.06
2017-06-05T06:56:17.370Z,4.94
2017-06-05T06:58:44.938Z,3.82
2017-06-05T07:01:13.252Z,3.60
2017-06-05T07:03:41.586Z,4.90
2017-06-05T07:06:09.093Z,4.44
2017-06-05T07:08:36.609Z,4.10
2017-06-05T07:11:04.949Z,4.16
2017-06-05T07:13:32.476Z,4.64
2017-06-05T07:16:00.004Z,3.70
2017-06-05T07:18:28.317Z,4.56
2017-06-05T07:20:56.601Z,3.92
2017-06-05T07:23:24.938Z,4.10
2017-06-05T07:25:52.497Z,4.10
2017-06-05T07:28:20.017Z,3.60
2017-06-05T07:30:48.321Z,3.70
2017-06-05T07:33:15.816Z,3.98
2017-06-05T07:35:43.337Z,5.12
2017-06-05T07:38:11.598Z,3.96
2017-06-05T07:40:39.907Z,4.72
2017-06-05T07:43:08.214Z,4.20
2017-06-05T07:45:36.472Z,5.16
2017-06-05T07:48:04.011Z,4.10
2017-06-05T07:50:32.276Z,4.10
2017-06-05T07:52:59.813Z,4.12
2017-06-05T07:55:27.332Z,4.02
2017-06-05T07:57:55.593Z,4.58
2017-06-05T08:00:24.376Z,5.48
2017-06-05T08:02:51.880Z,4.20
2017-06-05T08:05:20.153Z,5.26
2017-06-05T08:07:48.451Z,4.92
2017-06-05T08:10:16.712Z,3.96
2017-06-05T08:12:45.059Z,5.16
2017-06-05T08:15:12.575Z,4.30
2017-06-05T08:17:40.857Z,4.36
2017-06-05T08:20:09.175Z,5.16
2017-06-05T08:22:36.757Z,4.70
2017-06-05T08:25:04.294Z,4.56
2017-06-05T08:27:31.857Z,4.64
2017-06-05T08:30:00.206Z,4.36
2017-06-05T08:32:28.496Z,4.68
2017-06-05T08:34:56.032Z,4.18
2017-06-05T08:37:24.323Z,3.90
2017-06-05T08:39:53.512Z,3.90
2017-06-05T08:42:21.811Z,4.14
2017-06-05T08:44:49.332Z,3.74
2017-06-05T08:47:16.889Z,2.96
2017-06-05T08:49:44.409Z,3.60
2017-06-05T08:52:12.689Z,3.10
2017-06-05T08:54:40.277Z,3.70
2017-06-05T08:57:07.793Z,3.60
2017-06-05T08:59:35.322Z,3.20
2017-06-05T09:02:03.679Z,3.92
2017-06-05T09:04:31.963Z,3.88
2017-06-05T09:06:59.566Z,4.08
2017-06-05T09:09:27.842Z,3.82
2017-06-05T09:11:56.117Z,3.86
2017-06-05T09:14:23.689Z,3.92
2017-06-05T09:16:51.984Z,3.38
2017-06-05T09:19:20.276Z,3.40
2017-06-05T09:21:48.637Z,3.62
2017-06-05T09:24:16.987Z,3.58
2017-06-05T09:26:44.499Z,3.64
2017-06-05T09:29:12.013Z,3.60
2017-06-05T09:31:40.347Z,3.60
2017-06-05T09:34:07.872Z,4.12
2017-06-05T09:36:36.159Z,3.46
2017-06-05T09:39:03.732Z,3.76
2017-06-05T09:41:32.040Z,3.22
2017-06-05T09:44:00.338Z,3.08
2017-06-05T09:46:27.892Z,2.60
2017-06-05T09:48:55.401Z,3.04
2017-06-05T09:51:23.695Z,3.48
2017-06-05T09:53:52.041Z,2.42
2017-06-05T09:56:19.550Z,2.66
2017-06-05T09:58:47.082Z,2.86
2017-06-05T10:01:15.415Z,2.74
2017-06-05T10:03:42.953Z,2.90
2017-06-05T10:06:10.465Z,2.60
2017-06-05T10:08:38.005Z,2.62
2017-06-05T10:11:06.369Z,2.92
2017-06-05T10:13:33.911Z,2.32
2017-06-05T10:16:01.453Z,1.90
2017-06-05T10:18:28.990Z,2.30
2017-06-05T10:20:57.261Z,2.76
2017-06-05T10:23:24.779Z,2.68
2017-06-05T10:25:53.103Z,2.76
2017-06-05T10:28:21.433Z,2.68
2017-06-05T10:30:49.708Z,2.82
2017-06-05T10:33:18.001Z,2.68
2017-06-05T10:35:45.580Z,2.66
2017-06-05T10:38:13.093Z,2.26
2017-06-05T10:40:41.379Z,2.60
2017-06-05T10:43:08.969Z,2.90
2017-06-05T10:45:37.257Z,2.36
2017-06-05T10:48:05.542Z,2.62
2017-06-05T10:50:33.859Z,2.68
2017-06-05T10:53:01.418Z,2.70
2017-06-05T10:55:29.733Z,2.42
2017-06-05T10:57:57.239Z,2.42
2017-06-05T11:00:25.518Z,2.38
2017-06-05T11:02:53.077Z,2.40
2017-06-05T11:05:21.350Z,2.30
2017-06-05T11:07:50.152Z,2.92
2017-06-05T11:10:18.514Z,2.48
2017-06-05T11:12:46.120Z,2.32
2017-06-05T11:15:13.766Z,2.20
2017-06-05T11:17:41.418Z,2.18
2017-06-05T11:20:09.786Z,2.60
2017-06-05T11:22:37.523Z,2.40
2017-06-05T11:25:05.082Z,2.30
2017-06-05T11:27:33.673Z,2.30
2017-06-05T11:30:02.067Z,2.50
2017-06-05T11:32:29.785Z,2.42
2017-06-05T11:34:57.555Z,2.40
2017-06-05T11:37:26.503Z,2.42
2017-06-05T11:39:55.151Z,2.74
2017-06-05T11:42:22.826Z,2.88
2017-06-05T11:44:50.485Z,2.28
2017-06-05T11:47:18.146Z,2.42
2017-06-05T11:49:45.798Z,2.30
2017-06-05T11:52:14.349Z,2.56
2017-06-05T11:54:42.036Z,2.96
2017-06-05T11:57:10.747Z,2.04
2017-06-05T11:59:38.877Z,2.40
2017-06-05T12:02:07.291Z,2.34
2017-06-05T12:04:34.889Z,2.26
2017-06-05T12:07:02.518Z,2.18
2017-06-05T12:09:30.174Z,2.54
2017-06-05T12:11:58.535Z,2.22
2017-06-05T12:14:26.199Z,2.00
2017-06-05T12:16:53.790Z,1.88
2017-06-05T12:19:21.449Z,2.02
2017-06-05T12:21:49.819Z,1.90
2017-06-05T12:24:17.373Z,2.00
2017-06-05T12:26:44.948Z,1.82
2017-06-05T12:29:12.568Z,2.00
2017-06-05T12:31:40.961Z,2.08
2017-06-05T12:34:08.723Z,2.30
2017-06-05T12:36:36.428Z,2.24
2017-06-05T12:39:04.418Z,2.06
2017-06-05T12:41:32.921Z,1.82
2017-06-05T12:44:00.837Z,2.30
2017-06-05T12:46:28.450Z,1.66
2017-06-05T12:48:55.986Z,2.16
2017-06-05T12:51:24.313Z,2.34
2017-06-05T12:53:51.863Z,2.10
2017-06-05T12:56:19.452Z,1.80
2017-06-05T12:58:47.037Z,2.28
2017-06-05T13:01:15.384Z,1.74
2017-06-05T13:03:42.989Z,1.90
2017-06-05T13:06:10.579Z,1.94
2017-06-05T13:08:38.263Z,1.80
2017-06-05T13:11:06.603Z,2.24
2017-06-05T13:13:34.200Z,2.06
2017-06-05T13:16:01.783Z,2.00
2017-06-05T13:18:29.414Z,2.36
2017-06-05T13:20:57.766Z,1.68
2017-06-05T13:23:25.927Z,2.22
2017-06-05T13:25:53.569Z,1.84
2017-06-05T13:28:22.287Z,1.76
2017-06-05T13:30:50.652Z,1.96
2017-06-05T13:33:18.335Z,2.42
2017-06-05T13:35:45.972Z,1.90
2017-06-05T13:38:13.572Z,1.90
2017-06-05T13:40:41.899Z,1.92
2017-06-05T13:43:09.492Z,1.72
2017-06-05T13:45:37.097Z,1.60
2017-06-05T13:48:04.714Z,1.74
2017-06-05T13:50:33.122Z,1.84
2017-06-05T13:53:00.771Z,1.90
2017-06-05T13:55:28.377Z,1.86
2017-06-05T13:57:56.021Z,1.72
2017-06-05T14:00:24.489Z,2.00
2017-06-05T14:02:52.047Z,1.76
2017-06-05T14:05:19.627Z,1.76
2017-06-05T14:07:47.221Z,1.88
2017-06-05T14:10:15.554Z,1.98
2017-06-05T14:12:43.088Z,1.82
2017-06-05T14:15:10.688Z,2.08
2017-06-05T14:17:38.262Z,1.70
2017-06-05T14:20:06.590Z,2.30
2017-06-05T14:22:34.180Z,2.30
2017-06-05T14:25:01.753Z,2.08
2017-06-05T14:27:29.315Z,3.82
2017-06-05T14:29:57.732Z,2.06
2017-06-05T14:32:28.601Z,2.46
2017-06-05T14:34:56.328Z,2.26
2017-06-05T14:37:23.992Z,2.20
2017-06-05T14:39:52.375Z,1.80
2017-06-05T14:42:19.957Z,2.14
2017-06-05T14:44:47.544Z,2.24
2017-06-05T14:47:16.297Z,2.04
2017-06-05T14:49:43.937Z,2.06
2017-06-05T14:52:13.266Z,2.72
2017-06-05T14:54:40.934Z,2.60
2017-06-05T14:57:08.617Z,2.40
2017-06-05T14:59:36.521Z,2.16
2017-06-05T15:02:05.041Z,2.60
2017-06-05T15:04:32.633Z,2.58
2017-06-05T15:07:00.201Z,2.58
2017-06-05T15:09:27.781Z,2.66
2017-06-05T15:11:56.084Z,2.70
2017-06-05T15:14:23.665Z,2.40
2017-06-05T15:16:51.197Z,3.06
2017-06-05T15:19:18.736Z,3.12
2017-06-05T15:21:48.083Z,3.86
2017-06-05T15:24:15.625Z,3.44
2017-06-05T15:26:43.937Z,3.58
2017-06-05T15:29:11.695Z,6.02
2017-06-05T15:31:40.012Z,3.90
2017-06-05T15:34:07.876Z,3.28
2017-06-05T15:36:35.517Z,2.26
2017-06-05T15:39:05.379Z,2.18
2017-06-05T15:41:33.773Z,2.56
2017-06-05T15:44:01.377Z,1.94
2017-06-05T15:46:29.003Z,2.36
2017-06-05T15:48:56.831Z,2.00
2017-06-05T15:51:25.243Z,2.18
2017-06-05T15:53:52.851Z,2.30
2017-06-05T15:56:20.443Z,2.10
2017-06-05T15:58:48.012Z,2.10
2017-06-05T16:01:16.322Z,2.16
2017-06-05T16:03:43.963Z,2.22
2017-06-05T16:06:12.725Z,2.28
2017-06-05T16:08:40.366Z,2.20
2017-06-05T16:11:08.682Z,2.22
2017-06-05T16:13:36.241Z,1.84
2017-06-05T16:16:03.776Z,2.00
2017-06-05T16:18:31.357Z,2.36
2017-06-05T16:20:59.741Z,2.88
2017-06-05T16:23:27.278Z,1.98
2017-06-05T16:25:54.821Z,2.30
2017-06-05T16:28:22.377Z,3.08
2017-06-05T16:30:50.701Z,2.08
2017-06-05T16:33:18.217Z,2.26
2017-06-05T16:35:45.737Z,2.10
2017-06-05T16:38:14.040Z,2.12
2017-06-05T16:40:42.326Z,2.10
2017-06-05T16:43:09.882Z,2.04
2017-06-05T16:45:37.417Z,1.78
2017-06-05T16:48:04.941Z,2.06
2017-06-05T16:50:33.254Z,2.30
2017-06-05T16:53:00.781Z,1.90
2017-06-05T16:55:28.338Z,2.10
2017-06-05T16:57:55.865Z,2.40
2017-06-05T17:00:24.221Z,2.28
2017-06-05T17:02:51.774Z,2.06
2017-06-05T17:05:19.339Z,1.88
2017-06-05T17:07:46.949Z,2.30
2017-06-05T17:10:15.288Z,1.76
2017-06-05T17:12:42.820Z,1.80
2017-06-05T17:15:10.421Z,2.04
2017-06-05T17:17:37.950Z,14.50
2017-06-05T17:20:06.233Z,3.10
2017-06-05T17:22:33.780Z,2.36
2017-06-05T17:25:02.110Z,2.88
2017-06-05T17:27:38.170Z,1.78
2017-06-05T17:30:06.635Z,2.12
2017-06-05T17:47:20.198Z,2.18
2017-06-05T17:49:48.704Z,2.04
2017-06-05T17:52:18.191Z,1.96
2017-06-05T17:54:46.438Z,1.60
2017-06-05T17:57:14.100Z,1.80
2017-06-05T17:59:41.713Z,2.10
2017-06-05T18:02:10.196Z,1.96
2017-06-05T18:04:37.873Z,2.32
2017-06-05T18:07:05.792Z,2.04
2017-06-05T18:09:33.619Z,1.98
2017-06-05T18:12:04.294Z,2.14
2017-06-05T18:14:36.091Z,2.04
2017-06-05T18:17:04.668Z,2.22
2017-06-05T18:19:32.876Z,2.10
2017-06-05T18:22:01.536Z,1.64
2017-06-05T18:24:29.166Z,1.64
2017-06-05T18:30:49.987Z,2.06
2017-06-05T18:33:22.817Z,1.80
2017-06-05T18:35:50.950Z,2.16
2017-06-05T18:38:24.384Z,1.98
2017-06-05T18:40:59.610Z,1.80
2017-06-05T18:43:27.614Z,1.96
2017-06-05T18:46:02.059Z,2.18
2017-06-05T18:48:31.437Z,1.96
2017-06-05T18:54:00.027Z,2.38
2017-06-05T18:56:28.278Z,1.90
2017-06-05T18:58:56.156Z,2.04
2017-06-05T19:01:26.204Z,1.78
2017-06-05T19:03:59.872Z,1.94
2017-06-05T19:06:27.579Z,2.02
2017-06-05T19:09:20.070Z,1.80
2017-06-05T19:11:51.506Z,2.00
2017-06-05T19:14:20.187Z,2.06
2017-06-05T19:16:48.262Z,2.42
2017-06-05T19:19:34.665Z,2.18
2017-06-05T19:22:04.856Z,2.20
2017-06-05T19:24:47.350Z,2.00
2017-06-05T19:30:09.852Z,2.02
2017-06-05T19:32:38.311Z,1.98
2017-06-05T19:35:05.917Z,1.94
2017-06-05T19:37:34.613Z,2.10
2017-06-05T19:40:03.274Z,1.98
2017-06-05T19:42:30.915Z,1.84
2017-06-05T19:45:04.498Z,2.08
2017-06-05T19:47:32.119Z,2.28
2017-06-05T19:50:00.421Z,2.24
2017-06-05T19:52:27.981Z,2.20
2017-06-05T19:54:55.533Z,2.28
2017-06-05T19:57:23.106Z,2.24
2017-06-05T19:59:51.442Z,2.42
2017-06-05T20:02:19.090Z,2.54
2017-06-05T20:04:46.795Z,2.46
2017-06-05T20:07:14.348Z,3.00
2017-06-05T20:09:42.016Z,2.48
2017-06-05T20:12:10.422Z,2.28
2017-06-05T20:14:38.104Z,2.40
2017-06-05T20:17:05.811Z,2.30
2017-06-05T20:19:33.502Z,2.30
2017-06-05T20:22:01.968Z,2.30
2017-06-05T20:24:29.600Z,2.20
2017-06-05T20:26:57.377Z,2.70
2017-06-05T20:29:25.054Z,2.50
2017-06-05T20:31:53.473Z,2.36
2017-06-05T20:34:21.121Z,2.16
2017-06-05T20:36:48.807Z,2.84
2017-06-05T20:39:16.448Z,2.60
2017-06-05T20:41:44.788Z,3.38
2017-06-05T20:44:12.474Z,2.50
2017-06-05T20:46:47.287Z,2.80
2017-06-05T20:49:29.877Z,3.02
2017-06-05T20:58:04.973Z,2.70
2017-06-05T21:03:25.062Z,2.88
2017-06-05T21:08:56.142Z,3.04
2017-06-05T21:11:30.706Z,3.06
2017-06-05T21:17:05.636Z,3.12
2017-06-05T21:19:37.928Z,2.46
2017-06-05T21:22:30.587Z,2.64
2017-06-05T21:34:01.011Z,2.92
2017-06-05T21:42:32.389Z,2.86
2017-06-05T21:45:15.891Z,2.64
2017-06-05T21:47:59.498Z,4.34
2017-06-05T21:50:42.314Z,2.98
2017-06-05T21:56:27.070Z,3.14
2017-06-05T22:16:41.401Z,3.50
2017-06-05T22:27:06.337Z,3.20
2017-06-05T22:32:44.922Z,3.14
2017-06-05T22:38:14.930Z,3.52
2017-06-05T22:40:51.174Z,4.02
2017-06-05T22:43:21.182Z,3.30
2017-06-05T22:46:01.632Z,3.20
2017-06-05T22:51:23.680Z,3.56
2017-06-05T22:53:56.988Z,3.70
2017-06-05T22:59:07.554Z,3.58
2017-06-05T23:07:53.450Z,2.90
2017-06-05T23:10:26.874Z,3.50
2017-06-05T23:13:02.266Z,5.34
2017-06-05T23:16:14.896Z,3.56
2017-06-05T23:18:52.508Z,3.70
2017-06-05T23:21:29.452Z,4.06
2017-06-05T23:23:59.063Z,4.10
2017-06-05T23:26:34.768Z,5.20
2017-06-05T23:29:07.949Z,4.34
2017-06-05T23:31:39.790Z,4.96
2017-06-05T23:34:23.058Z,5.00
2017-06-05T23:39:26.413Z,6.28
2017-06-05T23:42:00.637Z,4.60
2017-06-05T23:44:42.098Z,4.46
2017-06-05T23:47:16.657Z,5.14
2017-06-05T23:49:49.314Z,4.88
2017-06-05T23:55:17.954Z,4.70
2017-06-05T23:57:51.664Z,3.70
